createdAt,value
2022-11-25T00:00:39.922Z,204.03
2022-11-25T00:03:09.664Z,175.07
2022-11-25T00:05:39.110Z,183.77
2022-11-25T00:08:08.253Z,168.90
2022-11-25T00:10:39.184Z,161.27
2022-11-25T00:13:09.166Z,162.10
2022-11-25T00:15:38.454Z,172.13
2022-11-25T00:18:07.590Z,168.27
2022-11-25T00:20:38.831Z,155.70
2022-11-25T00:23:08.173Z,166.97
2022-11-25T00:25:39.677Z,150.27
2022-11-25T00:28:09.147Z,171.17
2022-11-25T00:30:38.439Z,141.23
2022-11-25T00:33:07.674Z,144.40
2022-11-25T00:35:37.192Z,174.20
2022-11-25T00:38:06.546Z,163.97
2022-11-25T00:40:35.674Z,157.50
2022-11-25T00:43:23.955Z,166.43
2022-11-25T00:45:52.757Z,156.23
2022-11-25T00:48:22.209Z,151.53
2022-11-25T00:50:51.147Z,162.10
2022-11-25T00:53:19.889Z,170.13
2022-11-25T00:56:06.132Z,161.13
2022-11-25T00:58:36.996Z,146.07
2022-11-25T01:01:06.731Z,147.43
2022-11-25T01:03:37.565Z,138.87
2022-11-25T01:06:08.473Z,144.97
2022-11-25T01:08:38.503Z,137.67
2022-11-25T01:11:10.030Z,135.70
2022-11-25T01:13:42.524Z,145.47
2022-11-25T01:16:14.235Z,125.10
2022-11-25T01:18:43.636Z,135.50
2022-11-25T01:21:16.034Z,122.83
2022-11-25T01:23:48.969Z,134.60
2022-11-25T01:26:19.697Z,109.33
2022-11-25T01:28:51.203Z,119.03
2022-11-25T01:31:22.289Z,106.43
2022-11-25T01:33:56.423Z,112.37
2022-11-25T01:36:27.579Z,114.97
2022-11-25T01:38:58.475Z,107.60
2022-11-25T01:41:30.671Z,104.07
2022-11-25T01:44:11.623Z,114.50
2022-11-25T01:47:07.249Z,105.37
2022-11-25T01:49:42.277Z,108.13
2022-11-25T01:52:17.507Z,111.90
2022-11-25T01:54:52.887Z,111.80
2022-11-25T01:57:26.767Z,111.50
2022-11-25T02:00:01.238Z,105.83
2022-11-25T02:02:34.416Z,107.30
2022-11-25T02:05:05.321Z,116.43
2022-11-25T02:07:36.802Z,107.50
2022-11-25T02:10:09.077Z,117.20
2022-11-25T02:12:40.692Z,120.47
2022-11-25T02:15:12.889Z,121.80
2022-11-25T02:17:44.710Z,120.40
2022-11-25T02:20:31.710Z,115.93
2022-11-25T02:23:11.282Z,110.67
2022-11-25T02:25:44.012Z,129.53
2022-11-25T02:28:18.668Z,129.53
2022-11-25T02:30:48.411Z,124.33
2022-11-25T02:33:18.081Z,117.67
2022-11-25T02:35:52.302Z,109.00
2022-11-25T02:38:25.608Z,106.23
2022-11-25T02:41:01.835Z,111.53
2022-11-25T02:43:31.149Z,118.77
2022-11-25T02:46:03.712Z,123.83
2022-11-25T02:51:28.687Z,124.03
2022-11-25T02:53:58.894Z,119.13
2022-11-25T02:56:33.183Z,113.13
2022-11-25T02:59:03.166Z,133.63
2022-11-25T03:01:33.175Z,124.27
2022-11-25T03:04:04.484Z,128.27
2022-11-25T03:06:34.911Z,126.10
2022-11-25T03:09:03.769Z,107.97
2022-11-25T03:11:52.619Z,118.43
2022-11-25T03:14:24.332Z,119.27
2022-11-25T03:16:53.345Z,119.60
2022-11-25T03:19:22.605Z,125.47
2022-11-25T03:21:54.301Z,123.97
2022-11-25T03:24:23.221Z,114.50
2022-11-25T03:26:53.767Z,115.43
2022-11-25T03:29:22.970Z,123.77
2022-11-25T03:31:52.914Z,116.67
2022-11-25T03:34:23.180Z,110.20
2022-11-25T03:36:53.091Z,111.03
2022-11-25T03:39:26.040Z,120.53
2022-11-25T03:41:56.622Z,126.73
2022-11-25T03:44:25.821Z,123.53
2022-11-25T03:46:55.197Z,118.77
2022-11-25T03:49:24.350Z,137.33
2022-11-25T03:51:53.628Z,131.27
2022-11-25T03:54:23.544Z,143.60
2022-11-25T03:57:29.598Z,133.03
2022-11-25T03:59:58.812Z,120.93
2022-11-25T04:02:28.591Z,144.67
2022-11-25T04:04:57.964Z,129.17
2022-11-25T04:07:29.270Z,134.63
2022-11-25T04:10:00.509Z,126.53
2022-11-25T04:12:50.500Z,126.27
2022-11-25T04:15:27.076Z,137.47
2022-11-25T04:17:59.621Z,151.43
2022-11-25T04:20:29.034Z,140.33
2022-11-25T04:23:07.454Z,136.00
2022-11-25T04:25:41.100Z,139.00
2022-11-25T04:28:16.749Z,134.30
2022-11-25T04:30:46.171Z,143.07
2022-11-25T04:33:15.116Z,137.50
2022-11-25T04:35:47.197Z,143.97
2022-11-25T04:38:16.273Z,144.63
2022-11-25T04:40:45.472Z,136.87
2022-11-25T04:43:26.557Z,139.67
2022-11-25T04:46:20.221Z,145.67
2022-11-25T04:48:52.356Z,133.60
2022-11-25T04:51:22.708Z,149.67
2022-11-25T04:53:56.067Z,144.70
2022-11-25T04:56:27.201Z,149.63
2022-11-25T04:59:16.676Z,152.83
2022-11-25T05:01:50.686Z,144.53
2022-11-25T05:04:30.600Z,135.30
2022-11-25T05:07:00.225Z,144.83
2022-11-25T05:09:32.564Z,155.23
2022-11-25T05:12:27.099Z,149.70
2022-11-25T05:14:58.934Z,142.60
2022-11-25T05:17:31.386Z,136.37
2022-11-25T05:20:02.134Z,152.20
2022-11-25T05:22:35.117Z,153.87
2022-11-25T05:25:07.807Z,145.63
2022-11-25T05:27:43.700Z,140.50
2022-11-25T05:30:15.941Z,157.10
2022-11-25T05:32:45.268Z,151.87
2022-11-25T05:35:14.695Z,157.87
2022-11-25T05:37:46.326Z,163.60
2022-11-25T05:40:16.286Z,150.33
2022-11-25T05:43:05.351Z,141.17
2022-11-25T05:45:40.578Z,154.37
2022-11-25T05:48:11.849Z,156.73
2022-11-25T05:50:43.365Z,141.83
2022-11-25T05:53:20.071Z,146.90
2022-11-25T05:55:57.507Z,138.47
2022-11-25T05:58:50.042Z,130.27
2022-11-25T06:01:21.535Z,118.83
2022-11-25T06:03:50.785Z,121.90
2022-11-25T06:06:21.039Z,121.57
2022-11-25T06:08:49.914Z,117.37
2022-11-25T06:11:22.264Z,121.30
2022-11-25T06:13:53.933Z,116.60
2022-11-25T06:16:26.456Z,119.30
2022-11-25T06:19:07.034Z,129.07
2022-11-25T06:21:36.997Z,111.10
2022-11-25T06:24:06.503Z,117.57
2022-11-25T06:26:36.267Z,127.80
2022-11-25T06:29:05.545Z,118.23
2022-11-25T06:31:36.115Z,115.27
2022-11-25T06:34:24.270Z,133.30
2022-11-25T06:36:54.281Z,113.80
2022-11-25T06:39:23.376Z,118.93
2022-11-25T06:41:53.024Z,121.03
2022-11-25T06:44:22.526Z,119.23
2022-11-25T06:46:53.629Z,115.30
2022-11-25T06:49:23.203Z,133.93
2022-11-25T06:51:54.764Z,135.13
2022-11-25T06:54:25.385Z,121.70
2022-11-25T06:56:55.290Z,141.73
2022-11-25T06:59:25.530Z,135.80
2022-11-25T07:01:56.119Z,128.73
2022-11-25T07:04:26.583Z,140.10
2022-11-25T07:06:56.336Z,135.47
2022-11-25T07:09:31.619Z,134.77
2022-11-25T07:12:00.943Z,131.03
2022-11-25T07:14:30.167Z,129.87
2022-11-25T07:17:07.426Z,118.60
2022-11-25T07:19:40.963Z,118.47
2022-11-25T07:22:10.922Z,128.17
2022-11-25T07:24:40.473Z,113.80
2022-11-25T07:27:10.076Z,120.13
2022-11-25T07:32:30.170Z,117.97
2022-11-25T07:35:01.951Z,121.53
2022-11-25T07:37:31.451Z,115.93
2022-11-25T07:40:03.063Z,120.13
2022-11-25T07:42:34.247Z,123.30
2022-11-25T07:45:04.779Z,134.50
2022-11-25T07:47:45.157Z,129.90
2022-11-25T07:50:14.491Z,127.37
2022-11-25T07:52:43.524Z,131.30
2022-11-25T07:55:13.163Z,131.30
2022-11-25T07:57:42.551Z,127.60
2022-11-25T08:00:14.918Z,118.83
2022-11-25T08:02:49.110Z,123.00
2022-11-25T08:05:19.354Z,126.23
2022-11-25T08:07:49.319Z,120.43
2022-11-25T08:10:19.930Z,125.00
2022-11-25T08:12:49.652Z,117.87
2022-11-25T08:15:20.068Z,128.13
2022-11-25T08:17:53.424Z,138.50
2022-11-25T08:20:23.293Z,139.17
2022-11-25T08:22:52.814Z,138.63
2022-11-25T08:25:22.079Z,141.87
2022-11-25T08:27:51.350Z,130.77
2022-11-25T08:30:21.818Z,152.90
2022-11-25T08:32:52.354Z,128.23
2022-11-25T08:35:22.225Z,123.77
2022-11-25T08:37:51.469Z,127.87
2022-11-25T08:40:21.508Z,128.97
2022-11-25T08:42:50.564Z,118.07
2022-11-25T08:45:19.459Z,126.03
2022-11-25T08:47:48.767Z,123.70
2022-11-25T08:50:20.052Z,115.53
2022-11-25T08:52:49.984Z,117.87
2022-11-25T08:55:19.501Z,121.20
2022-11-25T08:57:48.676Z,121.00
2022-11-25T09:00:18.734Z,135.90
2022-11-25T09:02:47.744Z,125.87
2022-11-25T09:05:20.638Z,124.77
2022-11-25T09:07:51.041Z,122.50
2022-11-25T09:10:20.748Z,110.27
2022-11-25T09:12:50.278Z,116.57
2022-11-25T09:15:20.742Z,110.97
2022-11-25T09:17:50.035Z,109.80
2022-11-25T09:20:21.033Z,105.03
2022-11-25T09:22:51.153Z,93.47
2022-11-25T09:25:20.152Z,98.60
2022-11-25T09:27:49.244Z,89.00
2022-11-25T09:30:18.229Z,96.67
2022-11-25T09:32:53.371Z,112.77
2022-11-25T09:35:25.584Z,100.30
2022-11-25T09:37:55.306Z,105.47
2022-11-25T09:40:38.096Z,108.10
2022-11-25T09:43:37.347Z,86.57
2022-11-25T09:46:31.410Z,99.90
2022-11-25T09:49:09.694Z,112.30
2022-11-25T09:51:56.831Z,108.00
2022-11-25T09:54:36.966Z,109.43
2022-11-25T09:57:23.454Z,105.33
2022-11-25T10:00:05.857Z,118.23
2022-11-25T10:02:48.249Z,117.60
2022-11-25T10:05:23.639Z,112.67
2022-11-25T10:08:01.070Z,119.87
2022-11-25T10:10:37.447Z,109.00
2022-11-25T10:13:13.171Z,108.10
2022-11-25T10:15:47.556Z,108.67
2022-11-25T10:18:23.383Z,109.83
2022-11-25T10:20:54.504Z,98.97
2022-11-25T10:23:29.036Z,100.63
2022-11-25T10:26:02.655Z,99.10
2022-11-25T10:28:34.674Z,82.87
2022-11-25T10:31:08.612Z,86.37
2022-11-25T10:33:42.033Z,75.43
2022-11-25T10:36:18.277Z,67.47
2022-11-25T10:38:59.434Z,72.87
2022-11-25T10:41:31.906Z,70.70
2022-11-25T10:44:01.212Z,70.30
2022-11-25T10:47:11.234Z,51.17
2022-11-25T10:49:31.915Z,54.90
2022-11-25T10:52:01.323Z,57.60
2022-11-25T10:54:32.208Z,54.43
2022-11-25T10:57:03.639Z,55.87
2022-11-25T10:59:35.535Z,54.50
2022-11-25T11:02:25.797Z,50.40
2022-11-25T11:05:01.547Z,53.87
2022-11-25T11:07:33.690Z,49.87
2022-11-25T11:10:25.956Z,46.43
2022-11-25T11:13:02.370Z,52.50
2022-11-25T11:15:33.832Z,60.57
2022-11-25T11:18:22.423Z,48.43
2022-11-25T11:20:53.371Z,49.63
2022-11-25T11:23:23.152Z,50.13
2022-11-25T11:26:02.292Z,48.93
2022-11-25T11:28:40.681Z,40.53
2022-11-25T11:31:19.871Z,45.37
2022-11-25T11:34:01.038Z,39.53
2022-11-25T11:36:43.821Z,38.93
2022-11-25T11:39:36.218Z,47.53
2022-11-25T11:42:16.626Z,35.07
2022-11-25T11:45:00.693Z,35.90
2022-11-25T11:47:35.966Z,30.40
2022-11-25T11:50:28.143Z,33.57
2022-11-25T11:53:04.166Z,29.70
2022-11-25T11:56:33.123Z,29.13
2022-11-25T11:59:14.253Z,32.80
2022-11-25T12:02:00.140Z,27.63
2022-11-25T12:04:32.963Z,36.17
2022-11-25T12:07:07.989Z,27.67
2022-11-25T12:09:43.807Z,36.63
2022-11-25T12:12:21.235Z,29.07
2022-11-25T12:14:56.268Z,32.70
2022-11-25T12:17:30.609Z,36.77
2022-11-25T12:20:05.684Z,33.67
2022-11-25T12:22:39.396Z,27.63
2022-11-25T12:25:13.327Z,33.57
2022-11-25T12:27:48.008Z,30.47
2022-11-25T12:30:21.520Z,41.70
2022-11-25T12:33:01.491Z,44.67
2022-11-25T12:35:42.088Z,39.93
2022-11-25T12:38:21.139Z,32.77
2022-11-25T12:40:57.223Z,37.30
2022-11-25T12:43:35.347Z,35.07
2022-11-25T12:46:20.655Z,34.27
2022-11-25T12:48:51.678Z,31.40
2022-11-25T12:51:34.193Z,36.83
2022-11-25T12:54:20.438Z,29.37
2022-11-25T12:57:30.158Z,27.63
2022-11-25T13:00:39.777Z,27.60
2022-11-25T13:03:32.191Z,25.73
2022-11-25T13:06:20.097Z,28.47
2022-11-25T13:08:59.566Z,36.10
2022-11-25T13:11:58.239Z,30.57
2022-11-25T13:14:41.854Z,35.87
2022-11-25T13:17:14.187Z,29.73
2022-11-25T13:19:45.128Z,30.40
2022-11-25T13:22:30.100Z,35.53
2022-11-25T13:25:00.534Z,28.33
2022-11-25T13:27:36.412Z,43.53
2022-11-25T13:30:06.262Z,37.37
2022-11-25T13:32:43.940Z,29.50
2022-11-25T13:35:55.155Z,36.63
2022-11-25T13:39:01.192Z,33.60
2022-11-25T13:41:45.770Z,32.03
2022-11-25T13:44:30.384Z,32.97
2022-11-25T13:47:01.995Z,39.13
2022-11-25T13:49:37.547Z,33.47
2022-11-25T13:52:37.518Z,34.43
2022-11-25T13:55:23.455Z,30.73
2022-11-25T13:58:09.254Z,37.23
2022-11-25T14:01:05.655Z,42.73
2022-11-25T14:03:53.695Z,45.30
2022-11-25T14:06:41.238Z,52.57
2022-11-25T14:09:23.633Z,64.97
2022-11-25T14:12:06.949Z,57.63
2022-11-25T14:15:03.427Z,49.97
2022-11-25T14:17:50.087Z,45.37
2022-11-25T14:20:36.608Z,38.40
2022-11-25T14:23:31.333Z,40.80
2022-11-25T14:26:21.092Z,48.80
2022-11-25T14:29:03.962Z,42.27
2022-11-25T14:31:40.725Z,45.20
2022-11-25T14:34:18.198Z,49.27
2022-11-25T14:36:52.552Z,48.90
2022-11-25T14:39:27.855Z,54.23
2022-11-25T14:42:04.580Z,43.10
2022-11-25T14:44:42.116Z,41.80
2022-11-25T14:47:11.169Z,37.57
2022-11-25T14:50:05.269Z,36.60
2022-11-25T14:52:39.476Z,46.10
2022-11-25T14:55:10.586Z,41.17
2022-11-25T14:57:46.420Z,38.07
2022-11-25T15:00:18.368Z,39.93
2022-11-25T15:02:56.412Z,44.30
2022-11-25T15:05:27.974Z,40.37
2022-11-25T15:08:04.037Z,39.07
2022-11-25T15:10:41.441Z,42.43
2022-11-25T15:13:34.857Z,58.40
2022-11-25T15:16:12.052Z,82.23
2022-11-25T15:18:49.203Z,52.80
2022-11-25T15:21:23.027Z,52.07
2022-11-25T15:23:52.081Z,53.83
2022-11-25T15:26:24.444Z,68.57
2022-11-25T15:28:59.132Z,60.43
2022-11-25T15:31:31.692Z,51.83
2022-11-25T15:34:04.151Z,55.83
2022-11-25T15:36:33.729Z,56.13
2022-11-25T15:39:16.635Z,55.37
2022-11-25T15:41:48.067Z,58.10
2022-11-25T15:44:24.297Z,46.93
2022-11-25T15:46:58.211Z,68.53
2022-11-25T15:49:27.870Z,58.60
2022-11-25T15:52:01.425Z,44.83
2022-11-25T15:54:33.939Z,50.03
2022-11-25T15:57:13.805Z,48.00
2022-11-25T15:59:53.318Z,46.87
2022-11-25T16:02:52.034Z,44.33
2022-11-25T16:05:28.640Z,48.77
2022-11-25T16:08:32.718Z,54.23
2022-11-25T16:11:12.870Z,52.07
2022-11-25T16:13:42.245Z,52.73
2022-11-25T16:16:30.061Z,52.00
2022-11-25T16:19:21.837Z,57.87
2022-11-25T16:22:03.676Z,66.73
2022-11-25T16:24:42.315Z,75.30
2022-11-25T16:27:25.320Z,63.00
2022-11-25T16:29:57.399Z,54.57
2022-11-25T16:32:30.185Z,61.50
2022-11-25T16:35:15.607Z,59.17
2022-11-25T16:37:48.915Z,60.20
2022-11-25T16:40:21.887Z,57.67
2022-11-25T16:42:54.184Z,55.37
2022-11-25T16:45:26.400Z,46.43
2022-11-25T16:48:00.167Z,47.27
2022-11-25T16:50:29.428Z,53.13
2022-11-25T16:52:58.455Z,46.80
2022-11-25T16:55:31.157Z,54.80
2022-11-25T16:58:01.204Z,51.43
2022-11-25T17:00:30.676Z,57.27
2022-11-25T17:03:01.896Z,59.47
2022-11-25T17:05:33.089Z,46.07
2022-11-25T17:08:03.501Z,57.13
2022-11-25T17:10:33.014Z,47.80
2022-11-25T17:13:03.846Z,48.87
2022-11-25T17:15:36.314Z,49.43
2022-11-25T17:18:10.739Z,54.23
2022-11-25T17:20:39.916Z,60.70
2022-11-25T17:23:14.554Z,64.27
2022-11-25T17:25:46.191Z,57.27
2022-11-25T17:28:18.416Z,66.07
2022-11-25T17:30:48.250Z,55.67
2022-11-25T17:33:22.041Z,59.17
2022-11-25T17:35:52.945Z,72.17
2022-11-25T17:38:23.997Z,78.87
2022-11-25T17:40:54.248Z,64.37
2022-11-25T17:43:29.220Z,61.77
2022-11-25T17:46:02.577Z,70.07
2022-11-25T17:48:33.814Z,73.53
2022-11-25T17:51:07.539Z,79.60
2022-11-25T17:53:38.422Z,86.90
2022-11-25T17:56:20.104Z,87.53
2022-11-25T17:58:50.280Z,96.07
2022-11-25T18:01:20.605Z,84.13
2022-11-25T18:04:16.320Z,92.20
2022-11-25T18:06:45.920Z,100.30
2022-11-25T18:09:15.785Z,95.20
2022-11-25T18:11:48.140Z,96.20
2022-11-25T18:14:24.115Z,94.23
2022-11-25T18:16:55.124Z,90.93
2022-11-25T18:19:28.290Z,94.43
2022-11-25T18:22:04.208Z,83.93
2022-11-25T18:24:33.817Z,82.87
2022-11-25T18:27:47.190Z,96.67
2022-11-25T18:30:19.986Z,116.23
2022-11-25T18:32:50.583Z,114.67
2022-11-25T18:35:24.610Z,83.47
2022-11-25T18:37:54.091Z,67.37
2022-11-25T18:40:23.133Z,91.37
2022-11-25T18:42:56.276Z,87.27
2022-11-25T18:45:31.556Z,79.67
2022-11-25T18:48:01.428Z,76.43
2022-11-25T18:50:34.035Z,89.33
2022-11-25T18:53:03.765Z,93.60
2022-11-25T18:55:34.268Z,95.33
2022-11-25T18:58:04.331Z,107.27
2022-11-25T19:00:33.810Z,111.60
2022-11-25T19:03:06.041Z,104.60
2022-11-25T19:05:38.742Z,106.03
2022-11-25T19:08:10.861Z,113.17
2022-11-25T19:10:42.567Z,91.57
2022-11-25T19:13:17.822Z,93.67
2022-11-25T19:15:47.933Z,98.03
2022-11-25T19:18:28.346Z,121.07
2022-11-25T19:20:59.397Z,112.87
2022-11-25T19:23:31.823Z,103.47
2022-11-25T19:26:10.639Z,123.87
2022-11-25T19:28:42.857Z,112.13
2022-11-25T19:31:18.134Z,111.53
2022-11-25T19:33:52.185Z,108.50
2022-11-25T19:36:27.760Z,106.00
2022-11-25T19:38:58.491Z,104.97
2022-11-25T19:41:29.826Z,122.87
2022-11-25T19:43:59.725Z,109.03
2022-11-25T19:46:52.432Z,112.97
2022-11-25T19:49:24.624Z,98.70
2022-11-25T19:52:00.445Z,97.20
2022-11-25T19:54:30.884Z,92.70
2022-11-25T19:57:03.091Z,97.57
2022-11-25T19:59:32.423Z,92.03
2022-11-25T20:02:01.931Z,88.83
2022-11-25T20:04:31.195Z,121.83
2022-11-25T20:07:07.460Z,138.90
2022-11-25T20:09:36.905Z,118.90
2022-11-25T20:12:22.891Z,135.83
2022-11-25T20:14:53.613Z,117.10
2022-11-25T20:17:27.628Z,134.40
2022-11-25T20:20:00.661Z,120.40
2022-11-25T20:22:36.503Z,131.70
2022-11-25T20:25:11.188Z,110.83
2022-11-25T20:27:41.179Z,133.03
2022-11-25T20:30:20.562Z,138.80
2022-11-25T20:32:50.300Z,131.83
2022-11-25T20:35:21.251Z,123.37
2022-11-25T20:37:55.679Z,115.20
2022-11-25T20:40:29.317Z,113.83
2022-11-25T20:43:00.056Z,115.33
2022-11-25T20:45:29.736Z,120.63
2022-11-25T20:47:59.663Z,131.20
2022-11-25T20:50:32.157Z,186.97
2022-11-25T20:53:04.361Z,168.03
2022-11-25T20:55:34.146Z,201.40
2022-11-25T20:58:03.797Z,149.97
2022-11-25T21:00:34.325Z,186.23
2022-11-25T21:03:07.170Z,195.33
2022-11-25T21:05:36.244Z,167.47
2022-11-25T21:08:11.413Z,146.03
2022-11-25T21:10:43.179Z,180.67
2022-11-25T21:13:22.469Z,112.07
2022-11-25T21:15:53.629Z,120.23
2022-11-25T21:18:24.360Z,116.23
2022-11-25T21:20:55.620Z,114.40
2022-11-25T21:23:30.132Z,134.00
2022-11-25T21:26:06.763Z,150.67
2022-11-25T21:28:42.438Z,154.17
2022-11-25T21:31:16.933Z,157.43
2022-11-25T21:33:47.160Z,176.70
2022-11-25T21:36:20.648Z,161.73
2022-11-25T21:38:59.236Z,165.80
2022-11-25T21:41:29.339Z,152.13
2022-11-25T21:43:58.812Z,160.23
2022-11-25T21:46:29.473Z,127.57
2022-11-25T21:48:58.564Z,119.57
2022-11-25T21:51:28.359Z,137.60
2022-11-25T21:54:00.856Z,141.13
2022-11-25T21:56:34.390Z,149.53
2022-11-25T21:59:07.999Z,165.53
2022-11-25T22:01:37.618Z,158.47
2022-11-25T22:04:08.775Z,183.67
2022-11-25T22:06:37.789Z,229.07
2022-11-25T22:09:09.034Z,179.53
2022-11-25T22:11:42.168Z,195.30
2022-11-25T22:14:18.893Z,173.67
2022-11-25T22:16:48.347Z,148.30
2022-11-25T22:19:22.101Z,144.43
2022-11-25T22:21:51.423Z,134.90
2022-11-25T22:24:24.042Z,152.27
2022-11-25T22:26:58.083Z,211.57
2022-11-25T22:29:39.667Z,211.47
2022-11-25T22:32:12.913Z,179.40
2022-11-25T22:34:43.003Z,151.47
2022-11-25T22:37:19.456Z,177.40
2022-11-25T22:39:51.080Z,134.60
2022-11-25T22:42:28.466Z,141.70
2022-11-25T22:44:59.736Z,127.03
2022-11-25T22:47:35.041Z,124.27
2022-11-25T22:50:06.537Z,119.77
2022-11-25T22:52:39.558Z,122.63
2022-11-25T22:55:23.203Z,133.43
2022-11-25T22:57:55.398Z,141.27
2022-11-25T23:00:27.230Z,117.23
2022-11-25T23:02:59.072Z,116.73
2022-11-25T23:05:33.499Z,133.60
2022-11-25T23:08:03.509Z,133.27
2022-11-25T23:10:34.355Z,127.17
2022-11-25T23:13:03.821Z,133.10
2022-11-25T23:15:33.355Z,129.03
2022-11-25T23:18:05.189Z,139.67
2022-11-25T23:20:37.263Z,133.93
2022-11-25T23:23:14.755Z,132.97
2022-11-25T23:25:46.902Z,131.93
2022-11-25T23:28:17.405Z,123.90
2022-11-25T23:30:50.964Z,120.07
2022-11-25T23:33:32.683Z,135.37
2022-11-25T23:36:06.093Z,119.13
2022-11-25T23:38:40.339Z,127.97
2022-11-25T23:41:17.291Z,120.03
2022-11-25T23:43:46.902Z,119.23
2022-11-25T23:46:17.635Z,125.63
2022-11-25T23:48:53.849Z,130.27
2022-11-25T23:51:24.337Z,113.40
2022-11-25T23:53:57.137Z,120.23
2022-11-25T23:56:28.654Z,116.63
2022-11-25T23:58:58.504Z,128.53
